sensor_id;sensor_type;location;lat;lon;timestamp;temperature;humidity
40059;SHT31;25763;49.972;8.568;2023-05-07T00:01:28;16.18;73.95
40059;SHT31;25763;49.972;8.568;2023-05-07T00:03:53;16.17;73.96
40059;SHT31;25763;49.972;8.568;2023-05-07T00:06:19;16.14;74.04
40059;SHT31;25763;49.972;8.568;2023-05-07T00:08:44;16.17;74.06
40059;SHT31;25763;49.972;8.568;2023-05-07T00:11:10;16.21;73.78
40059;SHT31;25763;49.972;8.568;2023-05-07T00:13:35;16.24;73.96
40059;SHT31;25763;49.972;8.568;2023-05-07T00:16:02;16.26;73.87
40059;SHT31;25763;49.972;8.568;2023-05-07T00:18:27;16.28;73.75
40059;SHT31;25763;49.972;8.568;2023-05-07T00:20:53;16.14;74.21
40059;SHT31;25763;49.972;8.568;2023-05-07T00:23:18;16.20;74.26
40059;SHT31;25763;49.972;8.568;2023-05-07T00:25:43;16.07;74.58
40059;SHT31;25763;49.972;8.568;2023-05-07T00:28:09;16.03;74.81
40059;SHT31;25763;49.972;8.568;2023-05-07T00:30:34;15.97;75.00
40059;SHT31;25763;49.972;8.568;2023-05-07T00:32:59;16.00;75.08
40059;SHT31;25763;49.972;8.568;2023-05-07T00:35:25;16.01;75.07
40059;SHT31;25763;49.972;8.568;2023-05-07T00:37:50;15.97;75.22
40059;SHT31;25763;49.972;8.568;2023-05-07T00:40:16;15.94;75.36
40059;SHT31;25763;49.972;8.568;2023-05-07T00:42:41;15.86;75.56
40059;SHT31;25763;49.972;8.568;2023-05-07T00:45:07;15.80;75.75
40059;SHT31;25763;49.972;8.568;2023-05-07T00:47:33;15.74;75.99
40059;SHT31;25763;49.972;8.568;2023-05-07T00:49:58;15.79;76.25
40059;SHT31;25763;49.972;8.568;2023-05-07T00:52:25;15.84;76.15
40059;SHT31;25763;49.972;8.568;2023-05-07T00:54:51;15.84;76.36
40059;SHT31;25763;49.972;8.568;2023-05-07T00:57:17;15.87;76.34
40059;SHT31;25763;49.972;8.568;2023-05-07T00:59:42;15.90;75.69
40059;SHT31;25763;49.972;8.568;2023-05-07T01:02:08;15.96;75.72
40059;SHT31;25763;49.972;8.568;2023-05-07T01:04:33;15.94;75.83
40059;SHT31;25763;49.972;8.568;2023-05-07T01:06:59;16.03;75.35
40059;SHT31;25763;49.972;8.568;2023-05-07T01:09:26;15.97;75.68
40059;SHT31;25763;49.972;8.568;2023-05-07T01:11:52;16.07;75.04
40059;SHT31;25763;49.972;8.568;2023-05-07T01:14:18;16.07;75.32
40059;SHT31;25763;49.972;8.568;2023-05-07T01:16:43;16.04;75.35
40059;SHT31;25763;49.972;8.568;2023-05-07T01:19:09;16.14;74.60
40059;SHT31;25763;49.972;8.568;2023-05-07T01:21:37;16.21;74.43
40059;SHT31;25763;49.972;8.568;2023-05-07T01:24:04;16.25;74.53
40059;SHT31;25763;49.972;8.568;2023-05-07T01:26:30;16.24;74.25
40059;SHT31;25763;49.972;8.568;2023-05-07T01:28:55;16.18;74.75
40059;SHT31;25763;49.972;8.568;2023-05-07T01:31:21;16.22;74.32
40059;SHT31;25763;49.972;8.568;2023-05-07T01:33:49;16.28;74.08
40059;SHT31;25763;49.972;8.568;2023-05-07T01:36:17;16.25;74.19
40059;SHT31;25763;49.972;8.568;2023-05-07T01:38:43;16.26;74.18
40059;SHT31;25763;49.972;8.568;2023-05-07T01:41:08;16.22;74.12
40059;SHT31;25763;49.972;8.568;2023-05-07T01:43:33;16.22;74.37
40059;SHT31;25763;49.972;8.568;2023-05-07T01:45:59;16.01;75.07
40059;SHT31;25763;49.972;8.568;2023-05-07T01:48:26;16.05;74.96
40059;SHT31;25763;49.972;8.568;2023-05-07T01:50:52;16.00;75.39
40059;SHT31;25763;49.972;8.568;2023-05-07T01:53:17;15.93;75.41
40059;SHT31;25763;49.972;8.568;2023-05-07T01:55:42;15.88;75.83
40059;SHT31;25763;49.972;8.568;2023-05-07T01:58:08;15.91;75.42
40059;SHT31;25763;49.972;8.568;2023-05-07T02:00:33;15.88;75.54
40059;SHT31;25763;49.972;8.568;2023-05-07T02:02:59;15.77;75.99
40059;SHT31;25763;49.972;8.568;2023-05-07T02:05:24;15.76;76.40
40059;SHT31;25763;49.972;8.568;2023-05-07T02:07:50;15.74;76.38
40059;SHT31;25763;49.972;8.568;2023-05-07T02:10:15;15.74;76.36
40059;SHT31;25763;49.972;8.568;2023-05-07T02:12:40;15.80;76.04
40059;SHT31;25763;49.972;8.568;2023-05-07T02:15:06;15.76;76.55
40059;SHT31;25763;49.972;8.568;2023-05-07T02:17:31;15.86;75.90
40059;SHT31;25763;49.972;8.568;2023-05-07T02:19:58;15.96;75.30
40059;SHT31;25763;49.972;8.568;2023-05-07T02:22:24;16.05;74.92
40059;SHT31;25763;49.972;8.568;2023-05-07T02:24:49;16.03;75.80
40059;SHT31;25763;49.972;8.568;2023-05-07T02:27:14;15.91;76.11
40059;SHT31;25763;49.972;8.568;2023-05-07T02:29:40;15.84;76.02
40059;SHT31;25763;49.972;8.568;2023-05-07T02:32:05;15.77;76.35
40059;SHT31;25763;49.972;8.568;2023-05-07T02:34:31;15.79;76.15
40059;SHT31;25763;49.972;8.568;2023-05-07T02:36:56;15.76;76.41
40059;SHT31;25763;49.972;8.568;2023-05-07T02:39:21;15.77;76.54
40059;SHT31;25763;49.972;8.568;2023-05-07T02:41:47;15.66;76.60
40059;SHT31;25763;49.972;8.568;2023-05-07T02:44:12;15.71;76.43
40059;SHT31;25763;49.972;8.568;2023-05-07T02:46:37;15.71;76.36
40059;SHT31;25763;49.972;8.568;2023-05-07T02:49:03;15.86;75.87
40059;SHT31;25763;49.972;8.568;2023-05-07T02:51:30;15.88;75.66
40059;SHT31;25763;49.972;8.568;2023-05-07T02:53:55;15.79;76.06
40059;SHT31;25763;49.972;8.568;2023-05-07T02:56:21;15.76;76.14
40059;SHT31;25763;49.972;8.568;2023-05-07T02:58:46;15.66;76.41
40059;SHT31;25763;49.972;8.568;2023-05-07T03:01:12;15.58;76.60
40059;SHT31;25763;49.972;8.568;2023-05-07T03:03:39;15.61;76.54
40059;SHT31;25763;49.972;8.568;2023-05-07T03:06:05;15.53;76.57
40059;SHT31;25763;49.972;8.568;2023-05-07T03:08:32;15.61;76.54
40059;SHT31;25763;49.972;8.568;2023-05-07T03:10:57;15.61;76.33
40059;SHT31;25763;49.972;8.568;2023-05-07T03:13:23;15.55;76.38
40059;SHT31;25763;49.972;8.568;2023-05-07T03:15:48;15.65;76.05
40059;SHT31;25763;49.972;8.568;2023-05-07T03:18:13;15.63;75.97
40059;SHT31;25763;49.972;8.568;2023-05-07T03:20:39;15.67;75.80
40059;SHT31;25763;49.972;8.568;2023-05-07T03:23:05;15.63;75.96
40059;SHT31;25763;49.972;8.568;2023-05-07T03:25:31;15.61;76.08
40059;SHT31;25763;49.972;8.568;2023-05-07T03:27:56;15.49;76.28
40059;SHT31;25763;49.972;8.568;2023-05-07T03:30:22;15.55;76.18
40059;SHT31;25763;49.972;8.568;2023-05-07T03:32:47;15.58;76.24
40059;SHT31;25763;49.972;8.568;2023-05-07T03:35:12;15.55;76.10
40059;SHT31;25763;49.972;8.568;2023-05-07T03:37:38;15.55;75.96
40059;SHT31;25763;49.972;8.568;2023-05-07T03:40:04;15.51;76.04
40059;SHT31;25763;49.972;8.568;2023-05-07T03:42:30;15.42;76.26
40059;SHT31;25763;49.972;8.568;2023-05-07T03:44:55;15.35;76.49
40059;SHT31;25763;49.972;8.568;2023-05-07T03:47:21;15.45;76.21
40059;SHT31;25763;49.972;8.568;2023-05-07T03:49:46;15.41;76.37
40059;SHT31;25763;49.972;8.568;2023-05-07T03:52:11;15.39;76.37
40059;SHT31;25763;49.972;8.568;2023-05-07T03:54:37;15.38;76.43
40059;SHT31;25763;49.972;8.568;2023-05-07T03:57:02;15.34;76.52
40059;SHT31;25763;49.972;8.568;2023-05-07T03:59:27;15.34;76.87
40059;SHT31;25763;49.972;8.568;2023-05-07T04:01:53;15.42;76.48
40059;SHT31;25763;49.972;8.568;2023-05-07T04:04:18;15.35;76.67
40059;SHT31;25763;49.972;8.568;2023-05-07T04:06:44;15.37;76.44
40059;SHT31;25763;49.972;8.568;2023-05-07T04:09:09;15.37;76.57
40059;SHT31;25763;49.972;8.568;2023-05-07T04:11:35;15.34;76.50
40059;SHT31;25763;49.972;8.568;2023-05-07T04:14:01;15.26;76.83
40059;SHT31;25763;49.972;8.568;2023-05-07T04:16:26;15.26;76.70
40059;SHT31;25763;49.972;8.568;2023-05-07T04:18:52;15.28;76.53
40059;SHT31;25763;49.972;8.568;2023-05-07T04:21:18;15.34;76.29
40059;SHT31;25763;49.972;8.568;2023-05-07T04:23:44;15.24;76.20
40059;SHT31;25763;49.972;8.568;2023-05-07T04:26:09;15.37;76.06
40059;SHT31;25763;49.972;8.568;2023-05-07T04:28:35;15.32;75.99
40059;SHT31;25763;49.972;8.568;2023-05-07T04:31:00;15.34;76.06
40059;SHT31;25763;49.972;8.568;2023-05-07T04:33:26;15.26;75.97
40059;SHT31;25763;49.972;8.568;2023-05-07T04:35:51;15.32;76.07
40059;SHT31;25763;49.972;8.568;2023-05-07T04:38:16;15.28;76.03
40059;SHT31;25763;49.972;8.568;2023-05-07T04:40:43;15.28;76.01
40059;SHT31;25763;49.972;8.568;2023-05-07T04:43:09;15.30;76.10
40059;SHT31;25763;49.972;8.568;2023-05-07T04:45:35;15.31;75.86
40059;SHT31;25763;49.972;8.568;2023-05-07T04:48:01;15.27;75.93
40059;SHT31;25763;49.972;8.568;2023-05-07T04:50:26;15.31;75.87
40059;SHT31;25763;49.972;8.568;2023-05-07T04:52:51;15.20;75.86
40059;SHT31;25763;49.972;8.568;2023-05-07T04:55:17;15.22;75.85
40059;SHT31;25763;49.972;8.568;2023-05-07T04:57:42;15.35;75.79
40059;SHT31;25763;49.972;8.568;2023-05-07T05:00:08;15.34;75.41
40059;SHT31;25763;49.972;8.568;2023-05-07T05:02:34;15.27;75.54
40059;SHT31;25763;49.972;8.568;2023-05-07T05:05:00;15.28;75.29
40059;SHT31;25763;49.972;8.568;2023-05-07T05:07:27;15.39;75.04
40059;SHT31;25763;49.972;8.568;2023-05-07T05:09:53;15.35;74.67
40059;SHT31;25763;49.972;8.568;2023-05-07T05:12:19;15.46;74.76
40059;SHT31;25763;49.972;8.568;2023-05-07T05:14:44;15.46;74.19
40059;SHT31;25763;49.972;8.568;2023-05-07T05:17:10;15.58;74.29
40059;SHT31;25763;49.972;8.568;2023-05-07T05:19:35;15.61;73.95
40059;SHT31;25763;49.972;8.568;2023-05-07T05:22:00;15.71;73.98
40059;SHT31;25763;49.972;8.568;2023-05-07T05:24:26;15.73;73.58
40059;SHT31;25763;49.972;8.568;2023-05-07T05:26:53;15.65;73.69
40059;SHT31;25763;49.972;8.568;2023-05-07T05:29:19;15.74;73.73
40059;SHT31;25763;49.972;8.568;2023-05-07T05:31:45;15.81;73.41
40059;SHT31;25763;49.972;8.568;2023-05-07T05:34:10;15.79;73.19
40059;SHT31;25763;49.972;8.568;2023-05-07T05:36:35;15.81;73.33
40059;SHT31;25763;49.972;8.568;2023-05-07T05:39:01;15.81;73.41
40059;SHT31;25763;49.972;8.568;2023-05-07T05:41:26;15.88;73.06
40059;SHT31;25763;49.972;8.568;2023-05-07T05:43:52;15.88;72.44
40059;SHT31;25763;49.972;8.568;2023-05-07T05:46:17;15.93;72.69
40059;SHT31;25763;49.972;8.568;2023-05-07T05:48:42;15.96;72.21
40059;SHT31;25763;49.972;8.568;2023-05-07T05:51:08;15.96;72.59
40059;SHT31;25763;49.972;8.568;2023-05-07T05:53:33;16.01;72.25
40059;SHT31;25763;49.972;8.568;2023-05-07T05:55:59;16.14;72.40
40059;SHT31;25763;49.972;8.568;2023-05-07T05:58:24;16.20;72.16
40059;SHT31;25763;49.972;8.568;2023-05-07T06:00:49;16.38;72.00
40059;SHT31;25763;49.972;8.568;2023-05-07T06:03:17;16.39;72.14
40059;SHT31;25763;49.972;8.568;2023-05-07T06:05:42;16.53;71.42
40059;SHT31;25763;49.972;8.568;2023-05-07T06:08:08;16.42;71.28
40059;SHT31;25763;49.972;8.568;2023-05-07T06:10:35;16.74;71.03
40059;SHT31;25763;49.972;8.568;2023-05-07T06:13:01;16.57;70.72
40059;SHT31;25763;49.972;8.568;2023-05-07T06:15:26;16.59;71.23
40059;SHT31;25763;49.972;8.568;2023-05-07T06:17:52;16.61;70.84
40059;SHT31;25763;49.972;8.568;2023-05-07T06:20:17;16.61;70.66
40059;SHT31;25763;49.972;8.568;2023-05-07T06:22:43;16.45;70.62
40059;SHT31;25763;49.972;8.568;2023-05-07T06:25:08;16.53;70.74
40059;SHT31;25763;49.972;8.568;2023-05-07T06:27:34;16.55;70.22
40059;SHT31;25763;49.972;8.568;2023-05-07T06:29:59;16.64;70.33
40059;SHT31;25763;49.972;8.568;2023-05-07T06:32:24;16.78;70.07
40059;SHT31;25763;49.972;8.568;2023-05-07T06:34:50;16.71;70.11
40059;SHT31;25763;49.972;8.568;2023-05-07T06:37:15;16.74;70.21
40059;SHT31;25763;49.972;8.568;2023-05-07T06:39:40;16.68;69.72
40059;SHT31;25763;49.972;8.568;2023-05-07T06:42:06;16.64;69.57
40059;SHT31;25763;49.972;8.568;2023-05-07T06:44:31;16.91;69.77
40059;SHT31;25763;49.972;8.568;2023-05-07T06:46:57;16.92;69.42
40059;SHT31;25763;49.972;8.568;2023-05-07T06:49:22;16.92;69.23
40059;SHT31;25763;49.972;8.568;2023-05-07T06:51:48;17.05;69.08
40059;SHT31;25763;49.972;8.568;2023-05-07T06:54:13;17.11;69.14
40059;SHT31;25763;49.972;8.568;2023-05-07T06:56:38;17.36;68.63
40059;SHT31;25763;49.972;8.568;2023-05-07T06:59:04;17.36;68.26
40059;SHT31;25763;49.972;8.568;2023-05-07T07:01:29;17.20;68.65
40059;SHT31;25763;49.972;8.568;2023-05-07T07:03:54;17.27;68.29
40059;SHT31;25763;49.972;8.568;2023-05-07T07:06:20;17.26;68.29
40059;SHT31;25763;49.972;8.568;2023-05-07T07:08:45;17.46;67.61
40059;SHT31;25763;49.972;8.568;2023-05-07T07:11:11;17.53;66.83
40059;SHT31;25763;49.972;8.568;2023-05-07T07:13:36;17.36;67.48
40059;SHT31;25763;49.972;8.568;2023-05-07T07:16:02;17.34;67.15
40059;SHT31;25763;49.972;8.568;2023-05-07T07:18:28;17.23;67.52
40059;SHT31;25763;49.972;8.568;2023-05-07T07:20:53;17.29;67.36
40059;SHT31;25763;49.972;8.568;2023-05-07T07:23:19;17.41;67.37
40059;SHT31;25763;49.972;8.568;2023-05-07T07:25:45;17.27;67.47
40059;SHT31;25763;49.972;8.568;2023-05-07T07:28:10;17.34;67.02
40059;SHT31;25763;49.972;8.568;2023-05-07T07:30:36;17.33;67.07
40059;SHT31;25763;49.972;8.568;2023-05-07T07:33:02;17.33;67.17
40059;SHT31;25763;49.972;8.568;2023-05-07T07:35:34;17.32;67.14
40059;SHT31;25763;49.972;8.568;2023-05-07T07:37:59;17.33;66.86
40059;SHT31;25763;49.972;8.568;2023-05-07T07:40:25;17.37;67.14
40059;SHT31;25763;49.972;8.568;2023-05-07T07:42:51;17.44;67.08
40059;SHT31;25763;49.972;8.568;2023-05-07T07:45:17;17.57;66.86
40059;SHT31;25763;49.972;8.568;2023-05-07T07:47:42;17.55;66.98
40059;SHT31;25763;49.972;8.568;2023-05-07T07:50:08;17.49;67.54
40059;SHT31;25763;49.972;8.568;2023-05-07T07:52:34;17.63;66.99
40059;SHT31;25763;49.972;8.568;2023-05-07T07:58:21;17.70;67.33
40059;SHT31;25763;49.972;8.568;2023-05-07T08:00:47;17.63;67.22
40059;SHT31;25763;49.972;8.568;2023-05-07T08:03:13;17.64;66.65
40059;SHT31;25763;49.972;8.568;2023-05-07T08:05:39;17.78;66.98
40059;SHT31;25763;49.972;8.568;2023-05-07T08:08:04;17.74;66.83
40059;SHT31;25763;49.972;8.568;2023-05-07T08:10:31;17.99;66.36
40059;SHT31;25763;49.972;8.568;2023-05-07T08:12:59;18.14;65.65
40059;SHT31;25763;49.972;8.568;2023-05-07T08:15:25;17.99;65.91
40059;SHT31;25763;49.972;8.568;2023-05-07T08:17:50;18.12;66.29
40059;SHT31;25763;49.972;8.568;2023-05-07T08:20:16;18.09;65.80
40059;SHT31;25763;49.972;8.568;2023-05-07T08:22:41;18.10;66.20
40059;SHT31;25763;49.972;8.568;2023-05-07T08:25:07;18.10;66.11
40059;SHT31;25763;49.972;8.568;2023-05-07T08:27:32;18.16;66.37
40059;SHT31;25763;49.972;8.568;2023-05-07T08:29:58;17.98;66.35
40059;SHT31;25763;49.972;8.568;2023-05-07T08:32:23;17.98;66.14
40059;SHT31;25763;49.972;8.568;2023-05-07T08:34:48;18.09;65.99
40059;SHT31;25763;49.972;8.568;2023-05-07T08:37:14;18.16;65.44
40059;SHT31;25763;49.972;8.568;2023-05-07T08:39:39;18.23;65.23
40059;SHT31;25763;49.972;8.568;2023-05-07T08:42:04;18.38;65.48
40059;SHT31;25763;49.972;8.568;2023-05-07T08:44:34;18.62;64.78
40059;SHT31;25763;49.972;8.568;2023-05-07T08:47:01;18.82;64.21
40059;SHT31;25763;49.972;8.568;2023-05-07T08:49:27;18.64;64.04
40059;SHT31;25763;49.972;8.568;2023-05-07T08:51:52;18.51;64.62
40059;SHT31;25763;49.972;8.568;2023-05-07T08:54:18;18.64;64.64
40059;SHT31;25763;49.972;8.568;2023-05-07T08:56:44;18.96;64.19
40059;SHT31;25763;49.972;8.568;2023-05-07T08:59:10;18.93;63.20
40059;SHT31;25763;49.972;8.568;2023-05-07T09:01:35;19.04;63.33
40059;SHT31;25763;49.972;8.568;2023-05-07T09:04:01;18.89;63.15
40059;SHT31;25763;49.972;8.568;2023-05-07T09:06:26;18.96;63.21
40059;SHT31;25763;49.972;8.568;2023-05-07T09:08:53;19.00;63.28
40059;SHT31;25763;49.972;8.568;2023-05-07T09:11:22;19.38;62.37
40059;SHT31;25763;49.972;8.568;2023-05-07T09:13:49;19.28;62.65
40059;SHT31;25763;49.972;8.568;2023-05-07T09:16:20;18.99;62.61
40059;SHT31;25763;49.972;8.568;2023-05-07T09:18:46;19.31;62.94
40059;SHT31;25763;49.972;8.568;2023-05-07T09:21:17;19.42;62.64
40059;SHT31;25763;49.972;8.568;2023-05-07T09:23:42;19.73;61.91
40059;SHT31;25763;49.972;8.568;2023-05-07T09:26:08;19.80;62.13
40059;SHT31;25763;49.972;8.568;2023-05-07T09:28:42;20.08;61.21
40059;SHT31;25763;49.972;8.568;2023-05-07T09:31:09;20.45;60.41
40059;SHT31;25763;49.972;8.568;2023-05-07T09:33:34;19.94;61.02
40059;SHT31;25763;49.972;8.568;2023-05-07T09:36:07;20.39;60.60
40059;SHT31;25763;49.972;8.568;2023-05-07T09:38:34;20.83;60.52
40059;SHT31;25763;49.972;8.568;2023-05-07T09:41:11;20.53;59.46
40059;SHT31;25763;49.972;8.568;2023-05-07T09:43:38;20.31;59.81
40059;SHT31;25763;49.972;8.568;2023-05-07T09:46:06;20.73;59.15
40059;SHT31;25763;49.972;8.568;2023-05-07T09:48:36;20.59;59.14
40059;SHT31;25763;49.972;8.568;2023-05-07T09:51:15;20.77;59.28
40059;SHT31;25763;49.972;8.568;2023-05-07T09:53:41;20.60;59.75
40059;SHT31;25763;49.972;8.568;2023-05-07T09:56:07;20.84;59.39
40059;SHT31;25763;49.972;8.568;2023-05-07T09:58:33;20.83;58.99
40059;SHT31;25763;49.972;8.568;2023-05-07T10:01:02;20.97;59.91
40059;SHT31;25763;49.972;8.568;2023-05-07T10:03:29;21.04;59.41
40059;SHT31;25763;49.972;8.568;2023-05-07T10:05:58;21.19;58.83
40059;SHT31;25763;49.972;8.568;2023-05-07T10:08:23;20.95;58.35
40059;SHT31;25763;49.972;8.568;2023-05-07T10:10:49;21.04;57.71
40059;SHT31;25763;49.972;8.568;2023-05-07T10:13:16;21.43;57.72
40059;SHT31;25763;49.972;8.568;2023-05-07T10:15:42;21.14;58.48
40059;SHT31;25763;49.972;8.568;2023-05-07T10:18:08;21.39;57.52
40059;SHT31;25763;49.972;8.568;2023-05-07T10:20:36;21.65;57.08
40059;SHT31;25763;49.972;8.568;2023-05-07T10:23:04;21.58;56.97
40059;SHT31;25763;49.972;8.568;2023-05-07T10:25:31;21.70;56.50
40059;SHT31;25763;49.972;8.568;2023-05-07T10:28:00;21.75;56.90
40059;SHT31;25763;49.972;8.568;2023-05-07T10:33:13;21.64;57.78
40059;SHT31;25763;49.972;8.568;2023-05-07T10:35:41;22.09;55.54
40059;SHT31;25763;49.972;8.568;2023-05-07T10:38:08;22.49;55.15
40059;SHT31;25763;49.972;8.568;2023-05-07T10:40:33;22.78;54.62
40059;SHT31;25763;49.972;8.568;2023-05-07T10:43:00;22.63;54.43
40059;SHT31;25763;49.972;8.568;2023-05-07T10:45:27;22.27;55.85
40059;SHT31;25763;49.972;8.568;2023-05-07T10:48:12;22.78;54.85
40059;SHT31;25763;49.972;8.568;2023-05-07T10:50:41;22.82;53.88
40059;SHT31;25763;49.972;8.568;2023-05-07T10:55:50;23.62;54.07
40059;SHT31;25763;49.972;8.568;2023-05-07T11:00:48;23.44;53.09
40059;SHT31;25763;49.972;8.568;2023-05-07T11:03:14;23.33;51.71
40059;SHT31;25763;49.972;8.568;2023-05-07T11:05:40;23.19;51.50
40059;SHT31;25763;49.972;8.568;2023-05-07T11:08:06;23.63;51.75
40059;SHT31;25763;49.972;8.568;2023-05-07T11:13:18;23.83;51.84
40059;SHT31;25763;49.972;8.568;2023-05-07T11:15:45;24.17;49.38
40059;SHT31;25763;49.972;8.568;2023-05-07T11:18:16;24.09;49.90
40059;SHT31;25763;49.972;8.568;2023-05-07T11:20:48;24.25;48.97
40059;SHT31;25763;49.972;8.568;2023-05-07T11:26:04;24.76;48.69
40059;SHT31;25763;49.972;8.568;2023-05-07T11:28:30;24.76;48.75
40059;SHT31;25763;49.972;8.568;2023-05-07T11:30:56;24.73;48.30
40059;SHT31;25763;49.972;8.568;2023-05-07T11:33:22;24.59;48.81
40059;SHT31;25763;49.972;8.568;2023-05-07T11:35:48;24.45;46.81
40059;SHT31;25763;49.972;8.568;2023-05-07T11:38:16;24.44;46.83
40059;SHT31;25763;49.972;8.568;2023-05-07T11:40:52;23.96;47.82
40059;SHT31;25763;49.972;8.568;2023-05-07T11:43:18;23.85;48.41
40059;SHT31;25763;49.972;8.568;2023-05-07T11:45:47;24.45;46.31
40059;SHT31;25763;49.972;8.568;2023-05-07T11:48:13;24.68;47.39
40059;SHT31;25763;49.972;8.568;2023-05-07T11:51:01;24.65;47.14
40059;SHT31;25763;49.972;8.568;2023-05-07T11:53:27;24.07;47.96
40059;SHT31;25763;49.972;8.568;2023-05-07T11:55:55;24.07;47.61
40059;SHT31;25763;49.972;8.568;2023-05-07T11:58:23;24.20;47.99
40059;SHT31;25763;49.972;8.568;2023-05-07T12:00:49;24.10;47.05
40059;SHT31;25763;49.972;8.568;2023-05-07T12:03:15;24.25;46.88
40059;SHT31;25763;49.972;8.568;2023-05-07T12:05:40;24.28;47.52
40059;SHT31;25763;49.972;8.568;2023-05-07T12:08:07;24.34;48.13
40059;SHT31;25763;49.972;8.568;2023-05-07T12:10:32;23.99;46.64
40059;SHT31;25763;49.972;8.568;2023-05-07T12:12:58;23.97;47.59
40059;SHT31;25763;49.972;8.568;2023-05-07T12:15:23;24.25;46.91
40059;SHT31;25763;49.972;8.568;2023-05-07T12:17:49;24.48;47.05
40059;SHT31;25763;49.972;8.568;2023-05-07T12:20:14;24.44;47.18
40059;SHT31;25763;49.972;8.568;2023-05-07T12:22:40;24.27;46.97
40059;SHT31;25763;49.972;8.568;2023-05-07T12:25:06;24.40;46.29
40059;SHT31;25763;49.972;8.568;2023-05-07T12:27:31;24.58;46.38
40059;SHT31;25763;49.972;8.568;2023-05-07T12:29:57;24.61;45.80
40059;SHT31;25763;49.972;8.568;2023-05-07T12:32:23;24.87;46.16
40059;SHT31;25763;49.972;8.568;2023-05-07T12:34:50;24.80;45.94
40059;SHT31;25763;49.972;8.568;2023-05-07T12:37:16;24.93;46.70
40059;SHT31;25763;49.972;8.568;2023-05-07T12:39:48;25.28;46.28
40059;SHT31;25763;49.972;8.568;2023-05-07T12:42:19;24.83;46.27
40059;SHT31;25763;49.972;8.568;2023-05-07T12:44:48;24.58;45.10
40059;SHT31;25763;49.972;8.568;2023-05-07T12:47:14;24.37;45.43
40059;SHT31;25763;49.972;8.568;2023-05-07T12:49:40;24.58;45.59
40059;SHT31;25763;49.972;8.568;2023-05-07T12:52:06;24.45;45.60
40059;SHT31;25763;49.972;8.568;2023-05-07T12:54:34;24.63;44.27
40059;SHT31;25763;49.972;8.568;2023-05-07T12:57:04;24.61;45.11
40059;SHT31;25763;49.972;8.568;2023-05-07T12:59:31;24.56;44.89
40059;SHT31;25763;49.972;8.568;2023-05-07T13:01:56;24.07;44.58
40059;SHT31;25763;49.972;8.568;2023-05-07T13:04:24;23.78;44.92
40059;SHT31;25763;49.972;8.568;2023-05-07T13:06:50;24.20;44.41
40059;SHT31;25763;49.972;8.568;2023-05-07T13:09:15;24.42;43.81
40059;SHT31;25763;49.972;8.568;2023-05-07T13:11:40;24.66;43.95
40059;SHT31;25763;49.972;8.568;2023-05-07T13:14:06;24.77;43.34
40059;SHT31;25763;49.972;8.568;2023-05-07T13:16:31;24.73;44.64
40059;SHT31;25763;49.972;8.568;2023-05-07T13:18:56;24.99;43.73
40059;SHT31;25763;49.972;8.568;2023-05-07T13:21:22;25.34;43.09
40059;SHT31;25763;49.972;8.568;2023-05-07T13:23:47;25.55;43.37
40059;SHT31;25763;49.972;8.568;2023-05-07T13:26:12;25.25;42.52
40059;SHT31;25763;49.972;8.568;2023-05-07T13:28:37;25.38;42.88
40059;SHT31;25763;49.972;8.568;2023-05-07T13:31:03;25.25;43.10
40059;SHT31;25763;49.972;8.568;2023-05-07T13:33:28;25.31;43.74
40059;SHT31;25763;49.972;8.568;2023-05-07T13:35:54;25.63;44.07
40059;SHT31;25763;49.972;8.568;2023-05-07T13:38:19;25.71;43.70
40059;SHT31;25763;49.972;8.568;2023-05-07T13:40:44;26.01;42.87
40059;SHT31;25763;49.972;8.568;2023-05-07T13:43:10;25.66;43.32
40059;SHT31;25763;49.972;8.568;2023-05-07T13:45:35;25.34;43.43
40059;SHT31;25763;49.972;8.568;2023-05-07T13:48:01;25.27;44.68
40059;SHT31;25763;49.972;8.568;2023-05-07T13:50:26;24.84;44.33
40059;SHT31;25763;49.972;8.568;2023-05-07T13:52:55;24.80;45.55
40059;SHT31;25763;49.972;8.568;2023-05-07T13:55:21;24.53;44.93
40059;SHT31;25763;49.972;8.568;2023-05-07T13:57:54;24.63;45.63
40059;SHT31;25763;49.972;8.568;2023-05-07T14:00:20;24.75;45.42
40059;SHT31;25763;49.972;8.568;2023-05-07T14:02:45;24.82;45.65
40059;SHT31;25763;49.972;8.568;2023-05-07T14:05:10;25.03;45.21
40059;SHT31;25763;49.972;8.568;2023-05-07T14:07:36;24.96;44.25
40059;SHT31;25763;49.972;8.568;2023-05-07T14:10:02;25.21;44.12
40059;SHT31;25763;49.972;8.568;2023-05-07T14:12:27;25.53;43.98
40059;SHT31;25763;49.972;8.568;2023-05-07T14:14:53;25.88;42.68
40059;SHT31;25763;49.972;8.568;2023-05-07T14:17:18;26.02;41.90
40059;SHT31;25763;49.972;8.568;2023-05-07T14:19:44;25.79;41.59
40059;SHT31;25763;49.972;8.568;2023-05-07T14:22:09;25.87;41.26
40059;SHT31;25763;49.972;8.568;2023-05-07T14:24:35;25.84;42.92
40059;SHT31;25763;49.972;8.568;2023-05-07T14:27:01;26.35;43.34
40059;SHT31;25763;49.972;8.568;2023-05-07T14:29:26;26.42;42.56
40059;SHT31;25763;49.972;8.568;2023-05-07T14:31:51;26.08;41.95
40059;SHT31;25763;49.972;8.568;2023-05-07T14:34:17;25.36;43.17
40059;SHT31;25763;49.972;8.568;2023-05-07T14:36:42;25.27;43.64
40059;SHT31;25763;49.972;8.568;2023-05-07T14:39:09;25.08;44.89
40059;SHT31;25763;49.972;8.568;2023-05-07T14:41:34;25.02;44.04
40059;SHT31;25763;49.972;8.568;2023-05-07T14:44:00;25.20;43.70
40059;SHT31;25763;49.972;8.568;2023-05-07T14:46:25;24.94;44.75
40059;SHT31;25763;49.972;8.568;2023-05-07T14:48:51;24.99;45.78
40059;SHT31;25763;49.972;8.568;2023-05-07T14:51:16;24.82;45.45
40059;SHT31;25763;49.972;8.568;2023-05-07T14:53:42;24.51;46.09
40059;SHT31;25763;49.972;8.568;2023-05-07T14:56:07;24.17;46.97
40059;SHT31;25763;49.972;8.568;2023-05-07T14:58:34;24.16;46.67
40059;SHT31;25763;49.972;8.568;2023-05-07T15:01:00;24.07;46.35
40059;SHT31;25763;49.972;8.568;2023-05-07T15:03:25;24.14;46.56
40059;SHT31;25763;49.972;8.568;2023-05-07T15:05:51;24.14;46.67
40059;SHT31;25763;49.972;8.568;2023-05-07T15:08:17;23.94;47.12
40059;SHT31;25763;49.972;8.568;2023-05-07T15:10:42;23.97;47.13
40059;SHT31;25763;49.972;8.568;2023-05-07T15:13:09;23.79;46.82
40059;SHT31;25763;49.972;8.568;2023-05-07T15:15:34;23.66;46.93
40059;SHT31;25763;49.972;8.568;2023-05-07T15:18:00;23.58;46.95
40059;SHT31;25763;49.972;8.568;2023-05-07T15:20:26;23.61;48.17
40059;SHT31;25763;49.972;8.568;2023-05-07T15:22:52;23.58;47.34
40059;SHT31;25763;49.972;8.568;2023-05-07T15:25:17;23.54;47.61
40059;SHT31;25763;49.972;8.568;2023-05-07T15:27:42;23.37;47.93
40059;SHT31;25763;49.972;8.568;2023-05-07T15:30:08;23.33;47.80
40059;SHT31;25763;49.972;8.568;2023-05-07T15:32:35;23.26;47.77
40059;SHT31;25763;49.972;8.568;2023-05-07T15:35:01;23.30;47.86
40059;SHT31;25763;49.972;8.568;2023-05-07T15:37:26;23.26;47.89
40059;SHT31;25763;49.972;8.568;2023-05-07T15:39:52;23.17;48.13